»·PEaware :: QXE2312 KSNA-KSTS

QXE2312 :: KSNA-KSTS

FLIGHT INFORMATION

Flight Status: Arrived
Operator:
Horizon Air
More flights by this operator :: More flights under this callsign
Pilot: Kyle A. (14988)
Aircraft: DEHAVILLAND DASH 8 400
(DH8D)
More flights by this aircraft type
Origin: KSNA John Wayne-Orange Co
United States
Destination: KSTS Sonoma Co
United States
More flights between these airports :: More routes between these airports
Route: MUSEL8 SLI V459 LHS GMN PXN OAK SAU
File this flight plan on PilotEdge
Remarks:
Altitude:
(Current/Filed)
22,000ft
Speed:
(Current/Filed)
316kts
Departed: 22-Feb-18 02:50 PM
Arrived: 22-Feb-18 04:36 PM
Distance/Time
Traveled:
376nm/1:45
Distance/Time
To Go:
Arrived

Flight Plot

Page will automatically refresh every two minutes.

Flight plan parsing failed; only flown route is shown


Map Options




Map Legend


Flown Route
Filed Route
Departure Airport
Arrival Airport
Navaid (VOR, NDB)
Fix

Horizontal Profiles

Position Reports

Time Latitude Longitude Heading Altitude Ground
Speed
22-Feb-18 14:32 33.681851 -117.860768 116 63ft 0kts
22-Feb-18 14:33 33.681851 -117.860768 116 63ft 0kts
22-Feb-18 14:34 33.681851 -117.860768 116 63ft 0kts
22-Feb-18 14:35 33.681851 -117.860768 116 63ft 0kts
22-Feb-18 14:36 33.681851 -117.860768 116 63ft 0kts
22-Feb-18 14:37 33.681851 -117.860768 116 63ft 0kts
22-Feb-18 14:38 33.681851 -117.860768 116 63ft 0kts
22-Feb-18 14:39 33.681851 -117.860768 116 63ft 0kts
22-Feb-18 14:40 33.681851 -117.860768 116 63ft 0kts
22-Feb-18 14:41 33.681851 -117.860768 116 63ft 0kts
22-Feb-18 14:42 33.681851 -117.860768 116 63ft 0kts
22-Feb-18 14:43 33.681851 -117.860768 116 63ft 0kts
22-Feb-18 14:44 33.681851 -117.860768 116 63ft 0kts
22-Feb-18 14:45 33.681851 -117.860768 116 63ft 0kts
22-Feb-18 14:46 33.681851 -117.860768 116 63ft 0kts
22-Feb-18 14:47 33.682017 -117.861102 130 63ft 2kts
22-Feb-18 14:48 33.682441 -117.861222 207 63ft 0kts
22-Feb-18 14:49 33.682441 -117.861222 207 63ft 0kts
22-Feb-18 14:50 33.682441 -117.861222 207 63ft 0kts
22-Feb-18 14:51 33.682133 -117.861413 207 63ft 2kts
22-Feb-18 14:52 33.680544 -117.862906 292 63ft 7kts
22-Feb-18 14:53 33.680615 -117.863080 297 63ft 0kts
22-Feb-18 14:54 33.681142 -117.864268 297 63ft 0kts
22-Feb-18 14:55 33.681443 -117.864926 298 63ft 5kts
22-Feb-18 14:56 33.681330 -117.865299 208 63ft 0kts
22-Feb-18 14:57 33.662668 -117.876724 208 724ft 138kts
22-Feb-18 14:58 33.624421 -117.894838 197 2903ft 174kts
22-Feb-18 14:59 33.578153 -117.916449 223 5103ft 188kts
22-Feb-18 15:00 33.567303 -117.976013 262 7736ft 202kts
22-Feb-18 15:01 33.561502 -118.042108 262 9451ft 203kts
22-Feb-18 15:02 33.564676 -118.095144 312 11687ft 202kts
22-Feb-18 15:03 33.608750 -118.099184 1 12961ft 246kts
22-Feb-18 15:04 33.680765 -118.081542 4 12992ft 282kts
22-Feb-18 15:05 33.751090 -118.062700 3 14192ft 249kts
22-Feb-18 15:06 33.813101 -118.061440 324 14778ft 220kts
22-Feb-18 15:07 33.865693 -118.089096 324 15743ft 209kts
22-Feb-18 15:08 33.916349 -118.124730 320 16789ft 213kts
22-Feb-18 15:09 33.956138 -118.153687 326 17889ft 220kts
22-Feb-18 15:10 34.012409 -118.186635 327 18881ft 234kts
22-Feb-18 15:11 34.070275 -118.220017 327 19923ft 236kts
22-Feb-18 15:12 34.129350 -118.254147 327 20878ft 238kts
22-Feb-18 15:13 34.188492 -118.288389 327 21710ft 239kts
22-Feb-18 15:14 34.247668 -118.322790 328 22186ft 250kts
22-Feb-18 15:15 34.291196 -118.348134 328 22206ft 266kts
22-Feb-18 15:16 34.369973 -118.393882 328 22210ft 279kts
22-Feb-18 15:17 34.427114 -118.427139 328 22203ft 280kts
22-Feb-18 15:18 34.507213 -118.473909 328 22188ft 281kts
22-Feb-18 15:19 34.564707 -118.507539 327 22178ft 281kts
22-Feb-18 15:20 34.644787 -118.554558 327 22167ft 280kts
22-Feb-18 15:21 34.690169 -118.602290 301 22163ft 269kts
22-Feb-18 15:22 34.725800 -118.677378 297 22157ft 269kts
22-Feb-18 15:23 34.758893 -118.754974 297 22156ft 268kts
22-Feb-18 15:24 34.783136 -118.812110 297 22156ft 268kts
22-Feb-18 15:25 34.816758 -118.872460 313 22159ft 270kts
22-Feb-18 15:26 34.870869 -118.933032 313 22161ft 267kts
22-Feb-18 15:27 34.923382 -118.990924 313 22165ft 264kts
22-Feb-18 15:28 34.975154 -119.047733 313 22170ft 261kts
22-Feb-18 15:29 35.024661 -119.102118 313 22184ft 259kts
22-Feb-18 15:30 35.068376 -119.150248 313 22189ft 258kts
22-Feb-18 15:31 35.119305 -119.206421 313 22194ft 257kts
22-Feb-18 15:32 35.162347 -119.253968 313 22196ft 256kts
22-Feb-18 15:33 35.213120 -119.310132 313 22197ft 255kts
22-Feb-18 15:34 35.263923 -119.366448 313 22200ft 255kts
22-Feb-18 15:35 35.314672 -119.422952 313 22203ft 257kts
22-Feb-18 15:36 35.365767 -119.479671 313 22203ft 257kts
22-Feb-18 15:37 35.417294 -119.537081 313 22215ft 257kts
22-Feb-18 15:38 35.468774 -119.594575 313 22216ft 257kts
22-Feb-18 15:39 35.519664 -119.651433 313 22216ft 256kts
22-Feb-18 15:40 35.571013 -119.708965 313 22221ft 256kts
22-Feb-18 15:41 35.621876 -119.766196 313 22223ft 257kts
22-Feb-18 15:42 35.673114 -119.823714 313 22224ft 257kts
22-Feb-18 15:43 35.723990 -119.880991 313 22219ft 257kts
22-Feb-18 15:44 35.775026 -119.938604 313 22223ft 256kts
22-Feb-18 15:45 35.825828 -119.996024 313 22224ft 256kts
22-Feb-18 15:46 35.876771 -120.053735 313 22224ft 255kts
22-Feb-18 15:47 35.927660 -120.111481 313 22224ft 255kts
22-Feb-18 15:48 35.978693 -120.169496 313 22223ft 255kts
22-Feb-18 15:49 36.029381 -120.227230 313 22223ft 255kts
22-Feb-18 15:50 36.080747 -120.285832 313 22223ft 255kts
22-Feb-18 15:51 36.131539 -120.343892 313 22223ft 255kts
22-Feb-18 15:52 36.182192 -120.402040 313 22223ft 255kts
22-Feb-18 15:53 36.232841 -120.460019 313 22223ft 255kts
22-Feb-18 15:54 36.283099 -120.517808 313 22225ft 255kts
22-Feb-18 15:55 36.333542 -120.575879 313 22229ft 255kts
22-Feb-18 15:56 36.383736 -120.633882 313 22229ft 257kts
22-Feb-18 15:57 36.434035 -120.691924 313 22230ft 257kts
22-Feb-18 15:58 36.484687 -120.750596 313 22231ft 258kts
22-Feb-18 15:59 36.535415 -120.809561 313 22232ft 258kts
22-Feb-18 16:00 36.586657 -120.868996 313 22237ft 258kts
22-Feb-18 16:01 36.636958 -120.927563 313 22248ft 258kts
22-Feb-18 16:02 36.687409 -120.986578 313 22251ft 259kts
22-Feb-18 16:03 36.738555 -121.046231 313 22254ft 259kts
22-Feb-18 16:04 36.788814 -121.105077 313 22254ft 259kts
22-Feb-18 16:05 36.839194 -121.164208 313 22254ft 259kts
22-Feb-18 16:06 36.889906 -121.223883 315 22076ft 262kts
22-Feb-18 16:07 36.941111 -121.284166 314 20605ft 258kts
22-Feb-18 16:08 36.991429 -121.343579 314 19371ft 253kts
22-Feb-18 16:09 37.040220 -121.401238 314 18265ft 252kts
22-Feb-18 16:10 37.089960 -121.460280 315 17102ft 257kts
22-Feb-18 16:11 37.142251 -121.522160 315 15933ft 271kts
22-Feb-18 16:12 37.196714 -121.587042 315 14740ft 273kts
22-Feb-18 16:13 37.250454 -121.651012 315 14075ft 264kts
22-Feb-18 16:21 37.647149 -122.128022 315 14046ft 275kts
22-Feb-18 16:22 37.700825 -122.193047 315 14042ft 261kts
22-Feb-18 16:23 37.741378 -122.260682 301 13928ft 240kts
22-Feb-18 16:24 37.773596 -122.333478 301 12132ft 233kts
22-Feb-18 16:25 37.805571 -122.406905 300 10333ft 241kts
22-Feb-18 16:26 37.833788 -122.472705 299 10147ft 193kts
22-Feb-18 16:27 37.868170 -122.518228 333 8420ft 190kts
22-Feb-18 16:28 37.918838 -122.539552 339 6103ft 199kts
22-Feb-18 16:29 37.969978 -122.553597 345 4204ft 184kts
22-Feb-18 16:30 38.022770 -122.562649 346 4034ft 197kts
22-Feb-18 16:31 38.075669 -122.574116 339 4027ft 197kts
22-Feb-18 16:32 38.125914 -122.597623 329 4024ft 190kts
22-Feb-18 16:33 38.172691 -122.626555 331 4024ft 191kts
22-Feb-18 16:34 38.219761 -122.653305 332 3086ft 177kts
22-Feb-18 16:35 38.263816 -122.677316 332 3035ft 163kts
22-Feb-18 16:36 38.295977 -122.694750 332 3022ft 162kts
22-Feb-18 16:37 38.336062 -122.716376 332 2711ft 145kts
22-Feb-18 16:38 38.366868 -122.733011 332 2729ft 151kts
22-Feb-18 16:39 38.403098 -122.752533 333 2252ft 137kts
22-Feb-18 16:40 38.434365 -122.769763 336 1567ft 150kts
22-Feb-18 16:41 38.466606 -122.786493 335 871ft 112kts
22-Feb-18 16:42 38.490489 -122.799314 333 400ft 105kts
22-Feb-18 16:43 38.511747 -122.810758 337 133ft 16kts
22-Feb-18 16:44 38.514061 -122.810440 135 133ft 9kts
22-Feb-18 16:45 38.510965 -122.808489 100 132ft 7kts
22-Feb-18 16:46 38.509670 -122.807166 124 132ft 11kts
22-Feb-18 16:47 38.509854 -122.806263 67 132ft 0kts
22-Feb-18 16:48 38.509854 -122.806263 67 132ft 0kts

Navigation Log

Ident Type
Flight plan parsing failed, navigation log unavailable